MHLC/LCE METAR and TAF weather

Enter ICAO airport designator
Station Type Date Time Source
MHLC METAR 2020/01/23 06:00 UTC NOAA

MHLC 230600Z 18004KT 9999 FEW024 20/18 Q1016 A3000 NOSIG


Station Type Date Time Source
MHLC Decoded METAR 2020/01/23 06:00 UTC NOAA

La Ceiba Airport , Honduras (MHLC) 15-44N 086-52W 26M
Jan 23, 2020 - 01:00 AM EST / 2020.01.23 0600 UTC
Wind: from the S (180 degrees) at 5 MPH (4 KT):0
Visibility: greater than 7 mile(s):0
Sky conditions: mostly clear
Temperature: 68 F (20 C)
Dew Point: 64 F (18 C)
Relative Humidity: 88%
Pressure (altimeter): 30 in. Hg (1015 hPa)
ob: MHLC 230600Z 18004KT 9999 FEW024 20/18 Q1016 A3000 NOSIG
cycle: 6

Station Type Date Time Source
MHLC TAF 2020/01/23 06:39 UTC NOAA

TAF MHLC 230430Z 2306/2406 05004KT 8000 VCSH SCT022 OVC070 TX28/2321Z TN18/2312Z
BECMG 2306/2308 00000KT FEW020 BKN080
BECMG 2310/2312 18004KT
BECMG 2314/2316 9999 NSW FEW020 SCT080
BECMG 2401/2403 08012KT 8000 VCSH FEW024TCU BKN080

Example: see airport list